North Scituate, Rhode Island
Current Conditions -  °F | °C
As of 4:35 AM on Thursday 27 Nov 2014 (Local Time) from KSFZ Reporting Station
Overcast Overcast  
Wind Chill: 25°   Ceiling: 4900
Heat Index: 32°   Visibility: 10mi
Dew Point: 25°   Wind: 8mph
Humidity: 75%   Direction: 320°NW
Pressure: 29.79"   Gusts: NA
Location:  41.83°N, 71.59°W
Report Text: KSFZ 270935Z 32007KT 10SM OVC049 00/M04 A2979 RMK AO1 P0002
Loading
Personal Weather Stations






























Interactive Weather Map New forecast layout! Learn more

10-Day Weather Forecast

Advertisements
Track Severe Weather on mobile